createdAt,value
2023-02-27T00:01:37.052Z,92086.56
2023-02-27T00:04:06.466Z,92091.38
2023-02-27T00:06:37.183Z,92075.41
2023-02-27T00:09:06.997Z,92069.09
2023-02-27T00:11:38.672Z,92058.50
2023-02-27T00:14:08.483Z,92051.38
2023-02-27T00:16:37.763Z,92046.16
2023-02-27T00:19:07.182Z,92045.34
2023-02-27T00:21:38.137Z,92041.19
2023-02-27T00:24:08.851Z,92031.88
2023-02-27T00:26:38.180Z,92039.97
2023-02-27T00:29:08.190Z,92041.88
2023-02-27T00:31:37.474Z,92051.78
2023-02-27T00:34:06.933Z,92053.72
2023-02-27T00:36:37.688Z,92049.44
2023-02-27T00:39:07.191Z,92043.13
2023-02-27T00:41:36.603Z,92044.78
2023-02-27T00:44:06.172Z,92046.56
2023-02-27T00:46:35.686Z,92051.78
2023-02-27T00:50:34.088Z,92047.25
2023-02-27T00:53:03.410Z,92056.63
2023-02-27T00:55:32.686Z,92059.22
2023-02-27T00:58:02.042Z,92072.28
2023-02-27T01:00:31.771Z,92073.09
2023-02-27T01:03:01.135Z,92061.84
2023-02-27T01:05:30.491Z,92065.25
2023-02-27T01:08:01.337Z,92065.81
2023-02-27T01:10:30.656Z,92068.03
2023-02-27T01:12:59.978Z,92069.53
2023-02-27T01:15:29.281Z,92068.44
2023-02-27T01:17:58.821Z,92074.34
2023-02-27T01:20:28.237Z,92070.78
2023-02-27T01:22:57.596Z,92068.03
2023-02-27T01:25:28.393Z,92074.06
2023-02-27T01:27:57.890Z,92082.06
2023-02-27T01:30:27.202Z,92079.28
2023-02-27T01:32:56.683Z,92079.56
2023-02-27T01:35:26.029Z,92078.63
2023-02-27T01:37:55.350Z,92090.81
2023-02-27T01:40:24.834Z,92089.06
2023-02-27T01:42:55.862Z,92085.59
2023-02-27T01:45:39.553Z,92095.53
2023-02-27T01:48:17.253Z,92088.63
2023-02-27T01:50:52.415Z,92086.00
2023-02-27T01:53:26.116Z,92089.59
2023-02-27T01:55:58.166Z,92112.28
2023-02-27T01:58:29.471Z,92113.91
2023-02-27T02:00:59.713Z,92104.59
2023-02-27T02:03:41.580Z,92110.34
2023-02-27T02:06:11.720Z,92123.13
2023-02-27T02:08:46.543Z,92117.91
2023-02-27T02:11:19.799Z,92128.59
2023-02-27T02:13:55.113Z,92123.78
2023-02-27T02:16:45.969Z,92125.84
2023-02-27T02:19:57.099Z,92129.66
2023-02-27T02:23:19.630Z,92127.19
2023-02-27T02:26:19.891Z,92128.09
2023-02-27T02:29:44.431Z,92129.47
2023-02-27T02:33:12.187Z,92121.47
2023-02-27T02:36:47.354Z,92124.84
2023-02-27T02:40:07.766Z,92115.06
2023-02-27T02:42:44.288Z,92119.47
2023-02-27T02:45:22.079Z,92116.72
2023-02-27T02:48:06.057Z,92130.69
2023-02-27T02:50:43.137Z,92132.69
2023-02-27T02:53:37.001Z,92127.09
2023-02-27T02:56:14.835Z,92137.94
2023-02-27T02:58:53.411Z,92147.09
2023-02-27T03:01:28.325Z,92150.38
2023-02-27T03:04:04.289Z,92149.44
2023-02-27T03:06:37.766Z,92161.66
2023-02-27T03:09:13.942Z,92173.13
2023-02-27T03:11:49.372Z,92184.44
2023-02-27T03:14:30.912Z,92176.41
2023-02-27T03:17:06.037Z,92169.69
2023-02-27T03:19:42.857Z,92169.56
2023-02-27T03:22:17.057Z,92159.28
2023-02-27T03:24:50.217Z,92161.06
2023-02-27T03:27:22.246Z,92178.84
2023-02-27T03:29:57.418Z,92185.13
2023-02-27T03:32:34.000Z,92193.63
2023-02-27T03:35:04.533Z,92195.63
2023-02-27T03:38:00.676Z,92186.41
2023-02-27T03:40:36.867Z,92188.22
2023-02-27T03:43:20.514Z,92186.44
2023-02-27T03:46:00.971Z,92189.41
2023-02-27T03:51:34.762Z,92185.34
2023-02-27T03:54:10.898Z,92201.31
2023-02-27T03:56:46.112Z,92197.78
2023-02-27T03:59:16.450Z,92201.94
2023-02-27T04:01:47.152Z,92220.84
2023-02-27T04:04:19.168Z,92223.19
2023-02-27T04:07:14.461Z,92218.25
2023-02-27T04:10:18.994Z,92218.81
2023-02-27T04:13:19.333Z,92229.09
2023-02-27T04:16:15.914Z,92218.84
2023-02-27T04:19:05.693Z,92222.84
2023-02-27T04:21:43.876Z,92223.44
2023-02-27T04:24:32.429Z,92235.03
2023-02-27T04:27:10.228Z,92257.72
2023-02-27T04:29:50.171Z,92260.91
2023-02-27T04:32:27.530Z,92265.19
2023-02-27T04:35:01.609Z,92267.66
2023-02-27T04:37:36.610Z,92264.22
2023-02-27T04:40:13.709Z,92279.38
2023-02-27T04:42:48.336Z,92277.84
2023-02-27T04:45:21.428Z,92271.09
2023-02-27T04:47:57.016Z,92277.00
2023-02-27T04:50:31.360Z,92295.69
2023-02-27T04:53:09.065Z,92287.09
2023-02-27T04:55:46.903Z,92308.03
2023-02-27T04:58:24.450Z,92339.47
2023-02-27T05:01:01.154Z,92377.56
2023-02-27T05:03:37.371Z,92377.56
2023-02-27T05:06:07.368Z,92399.97
2023-02-27T05:08:43.311Z,92404.81
2023-02-27T05:11:22.636Z,92413.72
2023-02-27T05:13:56.416Z,92429.34
2023-02-27T05:16:33.323Z,92415.81
2023-02-27T05:19:04.733Z,92410.38
2023-02-27T05:21:40.548Z,92412.47
2023-02-27T05:24:20.139Z,92445.94
2023-02-27T05:27:12.234Z,92465.88
2023-02-27T05:29:50.096Z,92472.44
2023-02-27T05:32:32.280Z,92444.16
2023-02-27T05:35:14.398Z,92456.47
2023-02-27T05:37:49.849Z,92464.69
2023-02-27T05:40:25.697Z,92485.97
2023-02-27T05:43:03.712Z,92469.63
2023-02-27T05:45:36.009Z,92494.59
2023-02-27T05:48:10.466Z,92502.50
2023-02-27T05:50:41.727Z,92504.84
2023-02-27T05:53:17.872Z,92494.44
2023-02-27T05:55:51.799Z,92495.47
2023-02-27T05:58:27.900Z,92488.13
2023-02-27T06:01:01.567Z,92478.75
2023-02-27T06:03:34.920Z,92490.09
2023-02-27T06:06:07.861Z,92487.16
2023-02-27T06:08:38.229Z,92472.81
2023-02-27T06:11:08.354Z,92471.03
2023-02-27T06:13:41.729Z,92470.69
2023-02-27T06:16:14.210Z,92470.38
2023-02-27T06:18:43.619Z,92471.31
2023-02-27T06:21:16.860Z,92457.97
2023-02-27T06:23:46.236Z,92434.44
2023-02-27T06:26:15.958Z,92429.50
2023-02-27T06:28:46.788Z,92434.53
2023-02-27T06:31:16.436Z,92437.78
2023-02-27T06:33:49.108Z,92433.44
2023-02-27T06:36:18.650Z,92444.09
2023-02-27T06:38:47.959Z,92453.84
2023-02-27T06:41:17.432Z,92454.81
2023-02-27T06:43:48.334Z,92458.75
2023-02-27T06:46:17.711Z,92462.03
2023-02-27T06:51:33.966Z,92471.63
2023-02-27T06:54:03.615Z,92477.72
2023-02-27T06:56:33.029Z,92473.41
2023-02-27T06:59:02.347Z,92477.47
2023-02-27T07:01:31.714Z,92476.69
2023-02-27T07:04:01.760Z,92479.34
2023-02-27T07:07:36.133Z,92471.06
2023-02-27T07:09:23.324Z,92477.47
2023-02-27T07:11:53.705Z,92486.00
2023-02-27T07:14:23.582Z,92487.16
2023-02-27T07:16:55.320Z,92477.28
2023-02-27T07:19:26.202Z,92483.00
2023-02-27T07:21:56.916Z,92486.06
2023-02-27T07:24:26.448Z,92486.09
2023-02-27T07:26:55.978Z,92497.69
2023-02-27T07:29:25.267Z,92490.41
2023-02-27T07:31:54.657Z,92489.03
2023-02-27T07:34:23.923Z,92487.56
2023-02-27T07:36:53.341Z,92485.75
2023-02-27T07:39:24.187Z,92506.88
2023-02-27T07:41:53.633Z,92496.97
2023-02-27T07:44:23.097Z,92502.22
2023-02-27T07:46:52.652Z,92506.38
2023-02-27T07:49:22.042Z,92509.56
2023-02-27T07:51:51.669Z,92507.94
2023-02-27T07:54:22.688Z,92499.94
2023-02-27T07:56:52.182Z,92504.19
2023-02-27T07:59:21.663Z,92503.47
2023-02-27T08:01:51.105Z,92508.78
2023-02-27T08:04:20.405Z,92512.56
2023-02-27T08:06:49.854Z,92516.69
2023-02-27T08:09:19.492Z,92517.88
2023-02-27T08:11:50.170Z,92517.59
2023-02-27T08:14:19.584Z,92510.94
2023-02-27T08:16:48.857Z,92512.78
2023-02-27T08:19:18.465Z,92523.69
2023-02-27T08:21:47.839Z,92528.34
2023-02-27T08:24:17.290Z,92534.13
2023-02-27T08:26:46.671Z,92527.56
2023-02-27T08:29:17.603Z,92522.47
2023-02-27T08:31:48.617Z,92537.09
2023-02-27T08:34:18.196Z,92540.69
2023-02-27T08:37:06.570Z,92545.47
2023-02-27T08:39:35.856Z,92547.78
2023-02-27T08:42:05.355Z,92550.09
2023-02-27T08:44:36.470Z,92555.03
2023-02-27T08:47:06.369Z,92559.97
2023-02-27T08:49:36.031Z,92563.75
2023-02-27T08:52:05.886Z,92576.59
2023-02-27T08:54:35.419Z,92583.50
2023-02-27T08:57:05.289Z,92577.88
2023-02-27T08:59:36.245Z,92584.84
2023-02-27T09:02:06.555Z,92587.84
2023-02-27T09:04:36.375Z,92600.19
2023-02-27T09:07:06.104Z,92596.16
2023-02-27T09:09:35.521Z,92595.69
2023-02-27T09:12:04.911Z,92604.34
2023-02-27T09:14:35.749Z,92599.00
2023-02-27T09:17:05.283Z,92601.47
2023-02-27T09:19:34.734Z,92593.53
2023-02-27T09:22:04.215Z,92606.75
2023-02-27T09:24:33.651Z,92610.69
2023-02-27T09:27:03.229Z,92611.97
2023-02-27T09:29:32.628Z,92618.13
2023-02-27T09:32:03.555Z,92617.84
2023-02-27T09:34:33.077Z,92615.28
2023-02-27T09:37:02.713Z,92617.94
2023-02-27T09:39:32.596Z,92617.59
2023-02-27T09:42:06.661Z,92613.38
2023-02-27T09:44:47.395Z,92614.25
2023-02-27T09:47:27.180Z,92614.78
2023-02-27T09:51:33.809Z,92609.19
2023-02-27T09:54:04.267Z,92609.22
2023-02-27T09:56:37.375Z,92602.88
2023-02-27T09:59:15.369Z,92608.19
2023-02-27T10:01:52.068Z,92608.34
2023-02-27T10:04:41.080Z,92603.88
2023-02-27T10:07:19.671Z,92593.28
2023-02-27T10:10:06.067Z,92608.28
2023-02-27T10:12:48.197Z,92610.06
2023-02-27T10:15:26.016Z,92605.13
2023-02-27T10:18:10.499Z,92614.00
2023-02-27T10:20:56.322Z,92612.19
2023-02-27T10:23:43.298Z,92610.03
2023-02-27T10:26:20.768Z,92607.75
2023-02-27T10:28:50.616Z,92612.84
2023-02-27T10:31:26.417Z,92608.88
2023-02-27T10:33:58.247Z,92608.34
2023-02-27T10:36:34.128Z,92609.34
2023-02-27T10:39:09.315Z,92606.41
2023-02-27T10:41:40.361Z,92609.69
2023-02-27T10:44:11.223Z,92604.75
2023-02-27T10:46:42.521Z,92604.75
2023-02-27T10:49:19.405Z,92609.50
2023-02-27T10:51:49.869Z,92599.38
2023-02-27T10:54:24.855Z,92598.66
2023-02-27T10:56:58.136Z,92589.16
2023-02-27T10:59:30.452Z,92584.75
2023-02-27T11:02:03.566Z,92579.72
2023-02-27T11:04:36.885Z,92575.31
2023-02-27T11:07:16.124Z,92576.78
2023-02-27T11:10:03.587Z,92579.16
2023-02-27T11:12:35.699Z,92569.00
2023-02-27T11:15:25.818Z,92585.88
2023-02-27T11:17:55.346Z,92591.19
2023-02-27T11:20:40.029Z,92590.19
2023-02-27T11:23:18.538Z,92581.41
2023-02-27T11:25:49.757Z,92590.81
2023-02-27T11:28:28.497Z,92585.53
2023-02-27T11:31:03.807Z,92572.41
2023-02-27T11:33:42.912Z,92574.25
2023-02-27T11:36:12.452Z,92579.22
2023-02-27T11:38:41.893Z,92572.13
2023-02-27T11:41:12.815Z,92577.06
2023-02-27T11:43:51.345Z,92581.72
2023-02-27T11:46:47.267Z,92577.44
2023-02-27T11:49:33.997Z,92576.25
2023-02-27T11:52:12.755Z,92584.47
2023-02-27T11:54:46.588Z,92582.47
2023-02-27T11:57:27.021Z,92586.63
2023-02-27T12:00:03.729Z,92587.31
2023-02-27T12:02:47.638Z,92588.00
2023-02-27T12:05:21.088Z,92592.13
2023-02-27T12:07:57.176Z,92582.41
2023-02-27T12:10:30.909Z,92587.88
2023-02-27T12:13:06.604Z,92588.53
2023-02-27T12:15:46.567Z,92586.69
2023-02-27T12:18:24.555Z,92596.06
2023-02-27T12:21:00.800Z,92590.94
2023-02-27T12:23:40.636Z,92593.56
2023-02-27T12:26:19.132Z,92595.13
2023-02-27T12:28:59.490Z,92599.16
2023-02-27T12:31:49.060Z,92588.53
2023-02-27T12:34:28.637Z,92590.22
2023-02-27T12:37:05.506Z,92586.94
2023-02-27T12:39:36.349Z,92593.56
2023-02-27T12:42:45.405Z,92595.66
2023-02-27T12:45:43.975Z,92597.78
2023-02-27T12:51:48.070Z,92585.91
2023-02-27T12:54:38.298Z,92581.06
2023-02-27T12:57:30.067Z,92583.22
2023-02-27T13:00:15.151Z,92588.56
2023-02-27T13:02:58.808Z,92594.72
2023-02-27T13:05:43.545Z,92587.81
2023-02-27T13:08:45.579Z,92582.38
2023-02-27T13:11:28.067Z,92593.06
2023-02-27T13:14:02.433Z,92599.63
2023-02-27T13:16:36.824Z,92593.84
2023-02-27T13:19:14.136Z,92588.91
2023-02-27T13:21:51.771Z,92583.31
2023-02-27T13:24:28.380Z,92580.31
2023-02-27T13:27:03.912Z,92580.19
2023-02-27T13:29:47.790Z,92585.63
2023-02-27T13:32:43.054Z,92587.16
2023-02-27T13:35:28.877Z,92587.34
2023-02-27T13:38:02.521Z,92589.44
2023-02-27T13:40:42.468Z,92585.47
2023-02-27T13:43:51.313Z,92580.53
2023-02-27T13:46:25.846Z,92579.66
2023-02-27T13:48:55.706Z,92580.59
2023-02-27T13:51:49.231Z,92580.94
2023-02-27T13:54:29.292Z,92582.69
2023-02-27T13:57:25.012Z,92576.91
2023-02-27T14:00:10.012Z,92583.16
2023-02-27T14:02:59.995Z,92584.44
2023-02-27T14:05:37.081Z,92582.09
2023-02-27T14:08:16.891Z,92577.81
2023-02-27T14:11:00.097Z,92570.56
2023-02-27T14:14:02.179Z,92570.56
2023-02-27T14:16:58.970Z,92567.59
2023-02-27T14:19:57.273Z,92562.94
2023-02-27T14:23:19.029Z,92566.13
2023-02-27T14:25:52.639Z,92566.97
2023-02-27T14:28:31.702Z,92568.94
2023-02-27T14:31:06.115Z,92574.78
2023-02-27T14:33:45.625Z,92569.97
2023-02-27T14:36:21.689Z,92565.03
2023-02-27T14:38:52.003Z,92571.56
2023-02-27T14:41:39.676Z,92563.69
2023-02-27T14:44:22.493Z,92568.41
2023-02-27T14:46:55.660Z,92572.97
2023-02-27T14:49:31.495Z,92573.31
2023-02-27T14:52:14.903Z,92571.13
2023-02-27T14:54:45.357Z,92573.38
2023-02-27T14:57:20.256Z,92571.03
2023-02-27T14:59:51.379Z,92578.22
2023-02-27T15:02:28.615Z,92578.56
2023-02-27T15:05:18.202Z,92586.19
2023-02-27T15:07:50.435Z,92591.91
2023-02-27T15:10:26.035Z,92597.44
2023-02-27T15:12:55.550Z,92602.16
2023-02-27T15:15:25.081Z,92609.53
2023-02-27T15:17:57.172Z,92608.19
2023-02-27T15:20:31.220Z,92612.75
2023-02-27T15:23:01.824Z,92608.63
2023-02-27T15:25:33.957Z,92606.44
2023-02-27T15:28:06.708Z,92609.19
2023-02-27T15:30:36.492Z,92612.78
2023-02-27T15:33:15.437Z,92611.28
2023-02-27T15:35:47.170Z,92612.41
2023-02-27T15:38:28.104Z,92618.94
2023-02-27T15:40:59.337Z,92618.66
2023-02-27T15:43:30.852Z,92618.00
2023-02-27T15:46:01.018Z,92615.94
2023-02-27T15:51:33.706Z,92627.31
2023-02-27T15:54:05.415Z,92626.09
2023-02-27T15:56:38.094Z,92626.75
2023-02-27T15:59:08.048Z,92629.69
2023-02-27T16:01:38.544Z,92642.28
2023-02-27T16:04:20.647Z,92650.44
2023-02-27T16:07:00.943Z,92640.50
2023-02-27T16:09:33.566Z,92647.94
2023-02-27T16:12:29.209Z,92654.75
2023-02-27T16:15:26.277Z,92650.88
2023-02-27T16:18:03.168Z,92663.47
2023-02-27T16:20:42.901Z,92664.72
2023-02-27T16:23:25.224Z,92664.84
2023-02-27T16:26:28.533Z,92667.88
2023-02-27T16:29:00.990Z,92669.94
2023-02-27T16:31:33.286Z,92673.00
2023-02-27T16:34:14.629Z,92675.91
2023-02-27T16:36:53.007Z,92683.63
2023-02-27T16:39:24.399Z,92686.53
2023-02-27T16:41:55.469Z,92692.19
2023-02-27T16:44:25.290Z,92689.72
2023-02-27T16:46:56.296Z,92707.38
2023-02-27T16:49:28.724Z,92705.97
2023-02-27T16:52:02.941Z,92706.25
2023-02-27T16:54:33.884Z,92708.19
2023-02-27T16:57:03.396Z,92702.38
2023-02-27T16:59:35.095Z,92702.09
2023-02-27T17:02:08.173Z,92705.81
2023-02-27T17:04:37.603Z,92709.50
2023-02-27T17:07:07.370Z,92715.88
2023-02-27T17:09:38.088Z,92717.94
2023-02-27T17:12:07.782Z,92728.69
2023-02-27T17:14:37.946Z,92732.41
2023-02-27T17:17:08.012Z,92738.06
2023-02-27T17:19:37.471Z,92745.19
2023-02-27T17:22:06.810Z,92741.34
2023-02-27T17:24:39.067Z,92757.69
2023-02-27T17:27:08.849Z,92752.44
2023-02-27T17:29:40.213Z,92750.78
2023-02-27T17:32:09.534Z,92757.09
2023-02-27T17:34:39.036Z,92761.66
2023-02-27T17:37:08.605Z,92762.88
2023-02-27T17:39:41.415Z,92760.50
2023-02-27T17:42:12.932Z,92766.88
2023-02-27T17:44:44.864Z,92768.91
2023-02-27T17:47:14.729Z,92776.06
2023-02-27T17:49:44.214Z,92775.47
2023-02-27T17:52:13.911Z,92778.63
2023-02-27T17:54:44.918Z,92779.84
2023-02-27T17:57:14.271Z,92771.94
2023-02-27T17:59:44.597Z,92782.56
2023-02-27T18:02:15.334Z,92782.78
2023-02-27T18:04:44.755Z,92776.97
2023-02-27T18:07:14.267Z,92784.84
2023-02-27T18:09:46.806Z,92778.31
2023-02-27T18:12:15.830Z,92785.25
2023-02-27T18:14:45.115Z,92784.72
2023-02-27T18:17:14.393Z,92795.44
2023-02-27T18:19:45.322Z,92797.47
2023-02-27T18:22:16.508Z,92794.41
2023-02-27T18:24:47.232Z,92795.72
2023-02-27T18:27:16.534Z,92799.56
2023-02-27T18:29:45.845Z,92799.78
2023-02-27T18:32:15.326Z,92807.31
2023-02-27T18:34:44.847Z,92805.06
2023-02-27T18:37:14.193Z,92814.56
2023-02-27T18:39:43.532Z,92807.81
2023-02-27T18:42:14.320Z,92815.53
2023-02-27T18:44:43.728Z,92820.75
2023-02-27T18:47:13.296Z,92822.53
2023-02-27T18:51:33.613Z,92822.09
2023-02-27T18:54:05.293Z,92810.91
2023-02-27T18:56:34.642Z,92818.19
2023-02-27T18:59:05.510Z,92820.09
2023-02-27T19:01:39.226Z,92833.16
2023-02-27T19:04:11.635Z,92838.63
2023-02-27T19:06:44.236Z,92834.34
2023-02-27T19:09:16.303Z,92843.03
2023-02-27T19:11:48.232Z,92841.25
2023-02-27T19:14:18.619Z,92834.34
2023-02-27T19:16:50.044Z,92851.84
2023-02-27T19:19:20.458Z,92845.09
2023-02-27T19:21:51.228Z,92852.94
2023-02-27T19:24:20.621Z,92849.59
2023-02-27T19:26:51.133Z,92858.25
2023-02-27T19:29:21.948Z,92849.81
2023-02-27T19:31:51.974Z,92861.84
2023-02-27T19:34:21.346Z,92858.16
2023-02-27T19:36:52.240Z,92865.53
2023-02-27T19:39:22.596Z,92863.25
2023-02-27T19:41:51.982Z,92867.63
2023-02-27T19:44:21.736Z,92879.53
2023-02-27T19:46:52.219Z,92881.91
2023-02-27T19:49:22.035Z,92880.00
2023-02-27T19:51:52.841Z,92878.47
2023-02-27T19:54:22.254Z,92885.25
2023-02-27T19:56:52.933Z,92893.06
2023-02-27T19:59:24.869Z,92896.25
2023-02-27T20:01:54.931Z,92897.25
2023-02-27T20:04:24.618Z,92904.81
2023-02-27T20:06:55.722Z,92902.69
2023-02-27T20:09:27.082Z,92911.66
2023-02-27T20:12:00.457Z,92905.13
2023-02-27T20:14:30.656Z,92902.06
2023-02-27T20:17:00.297Z,92906.91
2023-02-27T20:19:30.141Z,92905.59
2023-02-27T20:22:00.917Z,92919.63
2023-02-27T20:24:30.438Z,92919.94
2023-02-27T20:27:00.316Z,92918.81
2023-02-27T20:29:30.335Z,92922.44
2023-02-27T20:32:00.491Z,92930.06
2023-02-27T20:34:30.096Z,92934.63
2023-02-27T20:37:01.262Z,92938.28
2023-02-27T20:39:31.014Z,92937.78
2023-02-27T20:42:00.934Z,92946.34
2023-02-27T20:44:30.695Z,92941.31
2023-02-27T20:47:00.051Z,92951.63
2023-02-27T20:49:29.530Z,92949.72
2023-02-27T20:52:00.324Z,92955.94
2023-02-27T20:54:29.814Z,92955.16
2023-02-27T20:56:59.286Z,92963.56
2023-02-27T20:59:28.881Z,92967.16
2023-02-27T21:01:59.801Z,92972.38
2023-02-27T21:04:42.616Z,92975.88
2023-02-27T21:07:15.115Z,92976.94
2023-02-27T21:09:44.877Z,92980.59
2023-02-27T21:12:14.840Z,92980.03
2023-02-27T21:14:45.472Z,92980.59
2023-02-27T21:17:15.495Z,92980.66
2023-02-27T21:19:44.836Z,92978.56
2023-02-27T21:22:17.109Z,92969.75
2023-02-27T21:24:46.950Z,92969.56
2023-02-27T21:27:19.888Z,92971.75
2023-02-27T21:29:50.080Z,92964.38
2023-02-27T21:32:22.566Z,92963.84
2023-02-27T21:34:51.937Z,92963.47
2023-02-27T21:37:22.766Z,92973.06
2023-02-27T21:39:55.489Z,92970.75
2023-02-27T21:42:24.547Z,92984.50
2023-02-27T21:44:53.976Z,92985.63
2023-02-27T21:47:23.355Z,92988.84
2023-02-27T21:51:40.403Z,92993.84
2023-02-27T21:54:13.722Z,93009.72
2023-02-27T21:56:44.820Z,93009.34
2023-02-27T21:59:15.028Z,93003.09
2023-02-27T22:01:48.502Z,93007.81
2023-02-27T22:04:19.265Z,93007.84
2023-02-27T22:06:51.637Z,93013.13
2023-02-27T22:09:21.433Z,93023.97
2023-02-27T22:11:51.366Z,93024.25
2023-02-27T22:14:20.778Z,93033.56
2023-02-27T22:16:50.297Z,93029.13
2023-02-27T22:19:22.215Z,93037.44
2023-02-27T22:21:52.959Z,93032.19
2023-02-27T22:24:22.478Z,93036.91
2023-02-27T22:26:51.982Z,93029.28
2023-02-27T22:29:21.401Z,93038.31
2023-02-27T22:31:51.153Z,93032.47
2023-02-27T22:34:20.882Z,93029.78
2023-02-27T22:36:53.351Z,93021.34
2023-02-27T22:39:23.307Z,93031.09
2023-02-27T22:41:56.500Z,93032.31
2023-02-27T22:44:26.296Z,93030.72
2023-02-27T22:46:57.994Z,93035.91
2023-02-27T22:49:27.418Z,93031.28
2023-02-27T22:51:58.187Z,93038.06
2023-02-27T22:54:27.581Z,93039.72
2023-02-27T22:56:58.158Z,93039.47
2023-02-27T22:59:28.147Z,93039.00
2023-02-27T23:01:57.676Z,93037.63
2023-02-27T23:04:27.236Z,93039.06
2023-02-27T23:06:58.587Z,93041.22
2023-02-27T23:09:28.424Z,93039.16
2023-02-27T23:11:59.052Z,93038.41
2023-02-27T23:14:28.429Z,93039.06
2023-02-27T23:16:57.854Z,93042.16
2023-02-27T23:19:27.173Z,93042.34
2023-02-27T23:21:58.077Z,93052.16
2023-02-27T23:24:27.606Z,93056.38
2023-02-27T23:26:57.025Z,93060.13
2023-02-27T23:29:26.398Z,93065.16
2023-02-27T23:31:55.821Z,93074.34
2023-02-27T23:34:25.192Z,93071.72
2023-02-27T23:36:54.781Z,93074.41
2023-02-27T23:39:25.638Z,93081.88
2023-02-27T23:41:57.981Z,93087.34
2023-02-27T23:44:28.267Z,93094.22
2023-02-27T23:46:57.703Z,93092.50
2023-02-27T23:49:27.086Z,93102.88
2023-02-27T23:51:56.713Z,93098.75
2023-02-27T23:54:27.638Z,93106.81
2023-02-27T23:56:57.189Z,93104.34
2023-02-27T23:59:30.398Z,93110.06
